CheckWX is a tool to help pilots better visualize weather data.  It is not intended as a substitute for an official pre-flight weather briefing.

17:20:47 UTC

BIAR METAR
Akureyri Airport
Akureyri, Iceland
Current

21 mins ago

BIAR 241700Z 34013KT 9999 BKN035 08/01 Q1021
Observed
May-24 @ 17:00 UTC
Wind
  • 340° at 13 KTS
Visibility
10,000+ meters
Flight Rules
VFR
Cloud Levels
  • Broken at 3,500' AGL
Temperature
C / 46°F
Dewpoint
C / 34°F
Humidity
62%
Altimeter
30.15" Hg
Pressure
1020.92 hPa
Previous

1 hour ago

BIAR 241600Z 35012KT 9999 BKN036 09/01 Q1021
Observed
May-24 @ 16:00 UTC
Wind
  • 350° at 12 KTS
Visibility
10,000+ meters
Flight Rules
VFR
Cloud Levels
  • Broken at 3,600' AGL
Temperature
C / 48°F
Dewpoint
C / 34°F
Humidity
58%
Altimeter
30.15" Hg
Pressure
1020.92 hPa
Previous

2 hours ago

BIAR 241500Z 34009KT 9999 BKN032 08/02 Q1021
Observed
May-24 @ 15:00 UTC
Wind
  • 340° at 9 KTS
Visibility
10,000+ meters
Flight Rules
VFR
Cloud Levels
  • Broken at 3,200' AGL
Temperature
C / 46°F
Dewpoint
C / 36°F
Humidity
66%
Altimeter
30.15" Hg
Pressure
1020.92 hPa